sensor_id;sensor_type;location;lat;lon;timestamp;P1;durP1;ratioP1;P2;durP2;ratioP2
21810;SDS011;11067;48.788;9.208;2024-03-22T00:01:40;23.33;;;13.57;;
21810;SDS011;11067;48.788;9.208;2024-03-22T00:04:05;27.75;;;13.65;;
21810;SDS011;11067;48.788;9.208;2024-03-22T00:06:31;20.30;;;13.43;;
21810;SDS011;11067;48.788;9.208;2024-03-22T00:08:56;24.33;;;13.53;;
21810;SDS011;11067;48.788;9.208;2024-03-22T00:11:22;24.45;;;13.57;;
21810;SDS011;11067;48.788;9.208;2024-03-22T00:13:47;26.17;;;14.70;;
21810;SDS011;11067;48.788;9.208;2024-03-22T00:16:13;21.30;;;13.60;;
21810;SDS011;11067;48.788;9.208;2024-03-22T00:18:38;21.77;;;13.48;;
21810;SDS011;11067;48.788;9.208;2024-03-22T00:21:04;21.17;;;13.77;;
21810;SDS011;11067;48.788;9.208;2024-03-22T00:23:29;21.77;;;14.80;;
21810;SDS011;11067;48.788;9.208;2024-03-22T00:25:55;19.95;;;13.68;;
21810;SDS011;11067;48.788;9.208;2024-03-22T00:28:21;20.77;;;13.60;;
21810;SDS011;11067;48.788;9.208;2024-03-22T00:30:46;23.77;;;14.68;;
21810;SDS011;11067;48.788;9.208;2024-03-22T00:33:12;22.33;;;14.20;;
21810;SDS011;11067;48.788;9.208;2024-03-22T00:35:37;23.00;;;14.90;;
21810;SDS011;11067;48.788;9.208;2024-03-22T00:38:03;19.43;;;13.40;;
21810;SDS011;11067;48.788;9.208;2024-03-22T00:40:29;22.92;;;14.70;;
21810;SDS011;11067;48.788;9.208;2024-03-22T00:42:54;23.50;;;15.13;;
21810;SDS011;11067;48.788;9.208;2024-03-22T00:45:20;24.57;;;14.40;;
21810;SDS011;11067;48.788;9.208;2024-03-22T00:47:45;23.17;;;14.18;;
21810;SDS011;11067;48.788;9.208;2024-03-22T00:50:11;24.20;;;15.03;;
21810;SDS011;11067;48.788;9.208;2024-03-22T00:52:37;22.85;;;14.77;;
21810;SDS011;11067;48.788;9.208;2024-03-22T00:55:03;25.13;;;14.87;;
21810;SDS011;11067;48.788;9.208;2024-03-22T00:57:30;23.38;;;14.43;;
21810;SDS011;11067;48.788;9.208;2024-03-22T00:59:56;23.43;;;14.67;;
21810;SDS011;11067;48.788;9.208;2024-03-22T01:02:21;25.77;;;15.63;;
21810;SDS011;11067;48.788;9.208;2024-03-22T01:04:47;25.45;;;16.05;;
21810;SDS011;11067;48.788;9.208;2024-03-22T01:07:13;27.47;;;16.33;;
21810;SDS011;11067;48.788;9.208;2024-03-22T01:09:39;24.30;;;14.83;;
21810;SDS011;11067;48.788;9.208;2024-03-22T01:12:04;28.30;;;15.73;;
21810;SDS011;11067;48.788;9.208;2024-03-22T01:14:30;25.30;;;14.82;;
21810;SDS011;11067;48.788;9.208;2024-03-22T01:16:56;23.85;;;14.80;;
21810;SDS011;11067;48.788;9.208;2024-03-22T01:19:21;23.95;;;14.98;;
21810;SDS011;11067;48.788;9.208;2024-03-22T01:21:48;23.48;;;15.15;;
21810;SDS011;11067;48.788;9.208;2024-03-22T01:24:13;24.15;;;14.75;;
21810;SDS011;11067;48.788;9.208;2024-03-22T01:26:39;21.20;;;14.93;;
21810;SDS011;11067;48.788;9.208;2024-03-22T01:29:05;24.17;;;14.52;;
21810;SDS011;11067;48.788;9.208;2024-03-22T01:31:30;22.80;;;14.20;;
21810;SDS011;11067;48.788;9.208;2024-03-22T01:33:56;21.77;;;14.57;;
21810;SDS011;11067;48.788;9.208;2024-03-22T01:36:21;19.48;;;14.00;;
21810;SDS011;11067;48.788;9.208;2024-03-22T01:38:46;22.03;;;14.47;;
21810;SDS011;11067;48.788;9.208;2024-03-22T01:41:12;20.27;;;14.20;;
21810;SDS011;11067;48.788;9.208;2024-03-22T01:43:38;24.33;;;13.98;;
21810;SDS011;11067;48.788;9.208;2024-03-22T01:46:04;22.95;;;15.25;;
21810;SDS011;11067;48.788;9.208;2024-03-22T01:48:29;24.38;;;14.70;;
21810;SDS011;11067;48.788;9.208;2024-03-22T01:50:56;20.23;;;14.82;;
21810;SDS011;11067;48.788;9.208;2024-03-22T01:53:22;23.90;;;15.40;;
21810;SDS011;11067;48.788;9.208;2024-03-22T01:55:48;23.30;;;14.93;;
21810;SDS011;11067;48.788;9.208;2024-03-22T01:58:13;23.03;;;14.90;;
21810;SDS011;11067;48.788;9.208;2024-03-22T02:00:39;21.30;;;14.80;;
21810;SDS011;11067;48.788;9.208;2024-03-22T02:03:05;20.23;;;14.70;;
21810;SDS011;11067;48.788;9.208;2024-03-22T02:05:30;22.00;;;15.03;;
21810;SDS011;11067;48.788;9.208;2024-03-22T02:07:56;21.10;;;14.53;;
21810;SDS011;11067;48.788;9.208;2024-03-22T02:10:21;23.77;;;15.15;;
21810;SDS011;11067;48.788;9.208;2024-03-22T02:12:47;25.30;;;15.40;;
21810;SDS011;11067;48.788;9.208;2024-03-22T02:15:12;25.30;;;15.83;;
21810;SDS011;11067;48.788;9.208;2024-03-22T02:17:38;23.67;;;15.37;;
21810;SDS011;11067;48.788;9.208;2024-03-22T02:20:03;22.00;;;14.97;;
21810;SDS011;11067;48.788;9.208;2024-03-22T02:22:30;21.70;;;15.47;;
21810;SDS011;11067;48.788;9.208;2024-03-22T02:24:55;23.43;;;15.30;;
21810;SDS011;11067;48.788;9.208;2024-03-22T02:27:21;25.17;;;15.13;;
21810;SDS011;11067;48.788;9.208;2024-03-22T02:29:46;26.08;;;14.55;;
21810;SDS011;11067;48.788;9.208;2024-03-22T02:32:12;23.55;;;15.57;;
21810;SDS011;11067;48.788;9.208;2024-03-22T02:34:38;21.60;;;14.93;;
21810;SDS011;11067;48.788;9.208;2024-03-22T02:37:03;22.52;;;14.30;;
21810;SDS011;11067;48.788;9.208;2024-03-22T02:39:32;23.00;;;15.20;;
21810;SDS011;11067;48.788;9.208;2024-03-22T02:42:04;21.27;;;14.18;;
21810;SDS011;11067;48.788;9.208;2024-03-22T02:44:30;23.92;;;15.10;;
21810;SDS011;11067;48.788;9.208;2024-03-22T02:46:55;25.17;;;15.00;;
21810;SDS011;11067;48.788;9.208;2024-03-22T02:49:21;24.20;;;15.67;;
21810;SDS011;11067;48.788;9.208;2024-03-22T02:51:46;22.45;;;15.27;;
21810;SDS011;11067;48.788;9.208;2024-03-22T02:54:12;21.42;;;15.02;;
21810;SDS011;11067;48.788;9.208;2024-03-22T02:56:37;27.70;;;15.53;;
21810;SDS011;11067;48.788;9.208;2024-03-22T02:59:03;24.47;;;15.57;;
21810;SDS011;11067;48.788;9.208;2024-03-22T03:01:28;23.98;;;15.65;;
21810;SDS011;11067;48.788;9.208;2024-03-22T03:03:54;22.87;;;15.43;;
21810;SDS011;11067;48.788;9.208;2024-03-22T03:06:19;23.67;;;14.83;;
21810;SDS011;11067;48.788;9.208;2024-03-22T03:08:45;22.17;;;14.90;;
21810;SDS011;11067;48.788;9.208;2024-03-22T03:11:11;24.67;;;15.00;;
21810;SDS011;11067;48.788;9.208;2024-03-22T03:13:39;20.70;;;14.18;;
21810;SDS011;11067;48.788;9.208;2024-03-22T03:16:05;20.60;;;13.10;;
21810;SDS011;11067;48.788;9.208;2024-03-22T03:18:31;21.90;;;14.30;;
21810;SDS011;11067;48.788;9.208;2024-03-22T03:20:56;22.87;;;14.07;;
21810;SDS011;11067;48.788;9.208;2024-03-22T03:23:22;20.53;;;13.33;;
21810;SDS011;11067;48.788;9.208;2024-03-22T03:25:47;20.90;;;13.13;;
21810;SDS011;11067;48.788;9.208;2024-03-22T03:28:13;19.03;;;12.57;;
21810;SDS011;11067;48.788;9.208;2024-03-22T03:30:39;20.40;;;13.57;;
21810;SDS011;11067;48.788;9.208;2024-03-22T03:33:04;20.30;;;13.73;;
21810;SDS011;11067;48.788;9.208;2024-03-22T03:35:30;20.03;;;14.03;;
21810;SDS011;11067;48.788;9.208;2024-03-22T03:37:55;18.60;;;12.90;;
21810;SDS011;11067;48.788;9.208;2024-03-22T03:40:21;24.53;;;13.53;;
21810;SDS011;11067;48.788;9.208;2024-03-22T03:42:49;21.00;;;13.30;;
21810;SDS011;11067;48.788;9.208;2024-03-22T03:45:15;19.53;;;13.00;;
21810;SDS011;11067;48.788;9.208;2024-03-22T03:47:40;20.27;;;13.73;;
21810;SDS011;11067;48.788;9.208;2024-03-22T03:50:06;19.75;;;13.25;;
21810;SDS011;11067;48.788;9.208;2024-03-22T03:52:32;18.67;;;12.85;;
21810;SDS011;11067;48.788;9.208;2024-03-22T03:54:57;21.37;;;14.13;;
21810;SDS011;11067;48.788;9.208;2024-03-22T03:57:22;21.37;;;13.97;;
21810;SDS011;11067;48.788;9.208;2024-03-22T03:59:48;19.23;;;12.82;;
21810;SDS011;11067;48.788;9.208;2024-03-22T04:02:14;19.60;;;13.20;;
21810;SDS011;11067;48.788;9.208;2024-03-22T04:04:39;19.57;;;13.43;;
21810;SDS011;11067;48.788;9.208;2024-03-22T04:07:05;19.30;;;13.63;;
21810;SDS011;11067;48.788;9.208;2024-03-22T04:09:30;18.00;;;12.73;;
21810;SDS011;11067;48.788;9.208;2024-03-22T04:11:56;24.10;;;13.60;;
21810;SDS011;11067;48.788;9.208;2024-03-22T04:14:23;17.67;;;12.87;;
21810;SDS011;11067;48.788;9.208;2024-03-22T04:16:52;21.17;;;14.00;;
21810;SDS011;11067;48.788;9.208;2024-03-22T04:19:19;23.42;;;14.10;;
21810;SDS011;11067;48.788;9.208;2024-03-22T04:21:45;18.52;;;13.25;;
21810;SDS011;11067;48.788;9.208;2024-03-22T04:24:11;18.13;;;13.20;;
21810;SDS011;11067;48.788;9.208;2024-03-22T04:26:36;21.23;;;14.00;;
21810;SDS011;11067;48.788;9.208;2024-03-22T04:29:02;19.67;;;13.60;;
21810;SDS011;11067;48.788;9.208;2024-03-22T04:31:27;20.17;;;13.43;;
21810;SDS011;11067;48.788;9.208;2024-03-22T04:33:53;23.17;;;13.43;;
21810;SDS011;11067;48.788;9.208;2024-03-22T04:36:18;23.23;;;13.63;;
21810;SDS011;11067;48.788;9.208;2024-03-22T04:38:44;22.83;;;13.63;;
21810;SDS011;11067;48.788;9.208;2024-03-22T04:41:09;22.97;;;14.43;;
21810;SDS011;11067;48.788;9.208;2024-03-22T04:43:35;21.57;;;13.70;;
21810;SDS011;11067;48.788;9.208;2024-03-22T04:46:00;18.00;;;12.88;;
21810;SDS011;11067;48.788;9.208;2024-03-22T04:48:26;18.83;;;12.67;;
21810;SDS011;11067;48.788;9.208;2024-03-22T04:50:52;20.27;;;12.97;;
21810;SDS011;11067;48.788;9.208;2024-03-22T04:53:18;22.42;;;13.32;;
21810;SDS011;11067;48.788;9.208;2024-03-22T04:55:46;19.27;;;12.82;;
21810;SDS011;11067;48.788;9.208;2024-03-22T04:58:14;19.67;;;12.63;;
21810;SDS011;11067;48.788;9.208;2024-03-22T05:00:42;22.70;;;13.35;;
21810;SDS011;11067;48.788;9.208;2024-03-22T05:03:08;17.63;;;12.10;;
21810;SDS011;11067;48.788;9.208;2024-03-22T05:05:34;17.27;;;12.37;;
21810;SDS011;11067;48.788;9.208;2024-03-22T05:08:00;20.75;;;12.88;;
21810;SDS011;11067;48.788;9.208;2024-03-22T05:10:25;19.38;;;12.40;;
21810;SDS011;11067;48.788;9.208;2024-03-22T05:12:51;20.83;;;12.70;;
21810;SDS011;11067;48.788;9.208;2024-03-22T05:15:16;18.85;;;12.85;;
21810;SDS011;11067;48.788;9.208;2024-03-22T05:17:42;18.07;;;11.97;;
21810;SDS011;11067;48.788;9.208;2024-03-22T05:20:08;17.37;;;11.50;;
21810;SDS011;11067;48.788;9.208;2024-03-22T05:22:37;17.48;;;11.63;;
21810;SDS011;11067;48.788;9.208;2024-03-22T05:25:02;18.20;;;12.17;;
21810;SDS011;11067;48.788;9.208;2024-03-22T05:27:30;17.42;;;11.65;;
21810;SDS011;11067;48.788;9.208;2024-03-22T05:29:57;18.40;;;12.27;;
21810;SDS011;11067;48.788;9.208;2024-03-22T05:32:23;17.88;;;12.27;;
21810;SDS011;11067;48.788;9.208;2024-03-22T05:34:49;20.95;;;12.93;;
21810;SDS011;11067;48.788;9.208;2024-03-22T05:37:15;17.87;;;12.40;;
21810;SDS011;11067;48.788;9.208;2024-03-22T05:39:40;17.63;;;12.23;;
21810;SDS011;11067;48.788;9.208;2024-03-22T05:42:07;17.65;;;12.13;;
21810;SDS011;11067;48.788;9.208;2024-03-22T05:44:32;18.70;;;12.30;;
21810;SDS011;11067;48.788;9.208;2024-03-22T05:46:58;17.77;;;12.37;;
21810;SDS011;11067;48.788;9.208;2024-03-22T05:49:23;18.93;;;12.40;;
21810;SDS011;11067;48.788;9.208;2024-03-22T05:51:49;16.88;;;12.10;;
21810;SDS011;11067;48.788;9.208;2024-03-22T05:54:14;18.23;;;12.17;;
21810;SDS011;11067;48.788;9.208;2024-03-22T05:56:40;18.13;;;12.20;;
21810;SDS011;11067;48.788;9.208;2024-03-22T05:59:05;18.85;;;12.27;;
21810;SDS011;11067;48.788;9.208;2024-03-22T06:01:31;18.70;;;12.20;;
21810;SDS011;11067;48.788;9.208;2024-03-22T06:03:57;16.83;;;12.45;;
21810;SDS011;11067;48.788;9.208;2024-03-22T06:06:23;18.48;;;11.82;;
21810;SDS011;11067;48.788;9.208;2024-03-22T06:08:51;18.48;;;12.15;;
21810;SDS011;11067;48.788;9.208;2024-03-22T06:11:22;19.10;;;12.73;;
21810;SDS011;11067;48.788;9.208;2024-03-22T06:13:48;18.80;;;12.85;;
21810;SDS011;11067;48.788;9.208;2024-03-22T06:16:13;16.27;;;12.40;;
21810;SDS011;11067;48.788;9.208;2024-03-22T06:18:40;18.00;;;12.82;;
21810;SDS011;11067;48.788;9.208;2024-03-22T06:21:05;21.20;;;12.45;;
21810;SDS011;11067;48.788;9.208;2024-03-22T06:23:31;19.45;;;12.32;;
21810;SDS011;11067;48.788;9.208;2024-03-22T06:25:57;21.37;;;13.00;;
21810;SDS011;11067;48.788;9.208;2024-03-22T06:28:24;19.63;;;12.73;;
21810;SDS011;11067;48.788;9.208;2024-03-22T06:30:52;21.30;;;13.40;;
21810;SDS011;11067;48.788;9.208;2024-03-22T06:33:19;20.17;;;12.93;;
21810;SDS011;11067;48.788;9.208;2024-03-22T06:35:45;17.83;;;12.17;;
21810;SDS011;11067;48.788;9.208;2024-03-22T06:38:11;15.20;;;11.90;;
21810;SDS011;11067;48.788;9.208;2024-03-22T06:40:37;17.42;;;12.13;;
21810;SDS011;11067;48.788;9.208;2024-03-22T06:43:03;18.13;;;12.33;;
21810;SDS011;11067;48.788;9.208;2024-03-22T06:45:28;18.53;;;11.73;;
21810;SDS011;11067;48.788;9.208;2024-03-22T06:47:54;18.13;;;11.87;;
21810;SDS011;11067;48.788;9.208;2024-03-22T06:50:20;19.10;;;11.77;;
21810;SDS011;11067;48.788;9.208;2024-03-22T06:52:52;16.90;;;12.02;;
21810;SDS011;11067;48.788;9.208;2024-03-22T06:55:18;16.35;;;11.52;;
21810;SDS011;11067;48.788;9.208;2024-03-22T06:57:45;17.03;;;11.13;;
21810;SDS011;11067;48.788;9.208;2024-03-22T07:00:12;19.33;;;11.30;;
21810;SDS011;11067;48.788;9.208;2024-03-22T07:02:38;21.05;;;11.75;;
21810;SDS011;11067;48.788;9.208;2024-03-22T07:05:05;17.80;;;11.83;;
21810;SDS011;11067;48.788;9.208;2024-03-22T07:07:31;17.48;;;11.90;;
21810;SDS011;11067;48.788;9.208;2024-03-22T07:09:56;19.92;;;11.07;;
21810;SDS011;11067;48.788;9.208;2024-03-22T07:12:22;18.33;;;11.57;;
21810;SDS011;11067;48.788;9.208;2024-03-22T07:14:48;17.10;;;11.60;;
21810;SDS011;11067;48.788;9.208;2024-03-22T07:17:13;18.37;;;12.17;;
21810;SDS011;11067;48.788;9.208;2024-03-22T07:19:40;15.40;;;11.43;;
21810;SDS011;11067;48.788;9.208;2024-03-22T07:22:05;21.90;;;11.65;;
21810;SDS011;11067;48.788;9.208;2024-03-22T07:24:32;20.48;;;11.98;;
21810;SDS011;11067;48.788;9.208;2024-03-22T07:26:57;16.87;;;11.53;;
21810;SDS011;11067;48.788;9.208;2024-03-22T07:29:23;14.93;;;11.30;;
21810;SDS011;11067;48.788;9.208;2024-03-22T07:31:48;14.47;;;11.27;;
21810;SDS011;11067;48.788;9.208;2024-03-22T07:34:14;15.67;;;11.13;;
21810;SDS011;11067;48.788;9.208;2024-03-22T07:36:40;16.07;;;10.60;;
21810;SDS011;11067;48.788;9.208;2024-03-22T07:39:06;16.20;;;11.77;;
21810;SDS011;11067;48.788;9.208;2024-03-22T07:41:32;15.70;;;11.02;;
21810;SDS011;11067;48.788;9.208;2024-03-22T07:43:58;16.73;;;10.95;;
21810;SDS011;11067;48.788;9.208;2024-03-22T07:46:25;17.20;;;11.13;;
21810;SDS011;11067;48.788;9.208;2024-03-22T07:48:51;16.52;;;10.80;;
21810;SDS011;11067;48.788;9.208;2024-03-22T07:51:16;17.52;;;11.63;;
21810;SDS011;11067;48.788;9.208;2024-03-22T07:53:42;18.42;;;11.45;;
21810;SDS011;11067;48.788;9.208;2024-03-22T07:56:07;18.73;;;11.40;;
21810;SDS011;11067;48.788;9.208;2024-03-22T07:58:33;15.20;;;10.73;;
21810;SDS011;11067;48.788;9.208;2024-03-22T08:00:58;17.60;;;11.38;;
21810;SDS011;11067;48.788;9.208;2024-03-22T08:03:24;17.60;;;11.43;;
21810;SDS011;11067;48.788;9.208;2024-03-22T08:05:50;16.43;;;11.53;;
21810;SDS011;11067;48.788;9.208;2024-03-22T08:08:15;15.00;;;10.80;;
21810;SDS011;11067;48.788;9.208;2024-03-22T08:10:41;16.75;;;10.75;;
21810;SDS011;11067;48.788;9.208;2024-03-22T08:13:06;17.25;;;10.75;;
21810;SDS011;11067;48.788;9.208;2024-03-22T08:15:32;15.37;;;10.57;;
21810;SDS011;11067;48.788;9.208;2024-03-22T08:17:57;15.43;;;10.40;;
21810;SDS011;11067;48.788;9.208;2024-03-22T08:20:23;15.40;;;10.77;;
21810;SDS011;11067;48.788;9.208;2024-03-22T08:22:49;19.52;;;10.77;;
21810;SDS011;11067;48.788;9.208;2024-03-22T08:25:15;17.27;;;11.02;;
21810;SDS011;11067;48.788;9.208;2024-03-22T08:27:45;14.13;;;10.50;;
21810;SDS011;11067;48.788;9.208;2024-03-22T08:30:11;14.30;;;10.23;;
21810;SDS011;11067;48.788;9.208;2024-03-22T08:32:37;17.67;;;11.25;;
21810;SDS011;11067;48.788;9.208;2024-03-22T08:35:03;15.90;;;10.90;;
21810;SDS011;11067;48.788;9.208;2024-03-22T08:37:31;17.63;;;11.18;;
21810;SDS011;11067;48.788;9.208;2024-03-22T08:39:58;15.07;;;11.18;;
21810;SDS011;11067;48.788;9.208;2024-03-22T08:42:23;15.30;;;11.00;;
21810;SDS011;11067;48.788;9.208;2024-03-22T08:44:49;14.43;;;10.60;;
21810;SDS011;11067;48.788;9.208;2024-03-22T08:47:14;17.58;;;10.50;;
21810;SDS011;11067;48.788;9.208;2024-03-22T08:49:40;13.50;;;10.20;;
21810;SDS011;11067;48.788;9.208;2024-03-22T08:52:08;14.70;;;10.57;;
21810;SDS011;11067;48.788;9.208;2024-03-22T08:54:33;14.38;;;10.30;;
21810;SDS011;11067;48.788;9.208;2024-03-22T08:56:59;12.25;;;9.55;;
21810;SDS011;11067;48.788;9.208;2024-03-22T08:59:24;16.90;;;10.13;;
21810;SDS011;11067;48.788;9.208;2024-03-22T09:01:51;15.45;;;10.80;;
21810;SDS011;11067;48.788;9.208;2024-03-22T09:04:16;17.80;;;10.50;;
21810;SDS011;11067;48.788;9.208;2024-03-22T09:06:42;17.80;;;9.93;;
21810;SDS011;11067;48.788;9.208;2024-03-22T09:09:07;17.17;;;11.35;;
21810;SDS011;11067;48.788;9.208;2024-03-22T09:11:34;13.02;;;10.05;;
21810;SDS011;11067;48.788;9.208;2024-03-22T09:13:59;14.48;;;9.85;;
21810;SDS011;11067;48.788;9.208;2024-03-22T09:16:25;17.60;;;9.97;;
21810;SDS011;11067;48.788;9.208;2024-03-22T09:18:50;16.10;;;10.03;;
21810;SDS011;11067;48.788;9.208;2024-03-22T09:21:16;17.88;;;9.65;;
21810;SDS011;11067;48.788;9.208;2024-03-22T09:23:41;14.07;;;9.83;;
21810;SDS011;11067;48.788;9.208;2024-03-22T09:26:07;15.83;;;9.53;;
21810;SDS011;11067;48.788;9.208;2024-03-22T09:28:32;12.88;;;9.13;;
21810;SDS011;11067;48.788;9.208;2024-03-22T09:30:58;17.40;;;9.00;;
21810;SDS011;11067;48.788;9.208;2024-03-22T09:33:32;13.33;;;8.37;;
21810;SDS011;11067;48.788;9.208;2024-03-22T09:35:58;14.15;;;8.68;;
21810;SDS011;11067;48.788;9.208;2024-03-22T09:38:24;12.47;;;8.80;;
21810;SDS011;11067;48.788;9.208;2024-03-22T09:40:50;12.00;;;7.97;;
21810;SDS011;11067;48.788;9.208;2024-03-22T09:43:19;10.27;;;6.90;;
21810;SDS011;11067;48.788;9.208;2024-03-22T09:45:47;9.43;;;6.28;;
21810;SDS011;11067;48.788;9.208;2024-03-22T09:48:15;9.57;;;6.85;;
21810;SDS011;11067;48.788;9.208;2024-03-22T09:50:42;11.10;;;7.03;;
21810;SDS011;11067;48.788;9.208;2024-03-22T09:53:10;11.10;;;6.95;;
21810;SDS011;11067;48.788;9.208;2024-03-22T09:55:38;11.23;;;6.20;;
21810;SDS011;11067;48.788;9.208;2024-03-22T09:58:08;7.78;;;5.80;;
21810;SDS011;11067;48.788;9.208;2024-03-22T10:00:34;8.90;;;5.70;;
21810;SDS011;11067;48.788;9.208;2024-03-22T10:03:00;7.00;;;4.80;;
21810;SDS011;11067;48.788;9.208;2024-03-22T10:05:26;10.85;;;5.32;;
21810;SDS011;11067;48.788;9.208;2024-03-22T10:07:51;10.67;;;5.43;;
21810;SDS011;11067;48.788;9.208;2024-03-22T10:10:18;5.97;;;4.57;;
21810;SDS011;11067;48.788;9.208;2024-03-22T10:12:44;5.93;;;4.00;;
21810;SDS011;11067;48.788;9.208;2024-03-22T10:15:09;6.73;;;4.30;;
21810;SDS011;11067;48.788;9.208;2024-03-22T10:17:36;7.10;;;4.40;;
21810;SDS011;11067;48.788;9.208;2024-03-22T10:20:02;6.55;;;4.70;;
21810;SDS011;11067;48.788;9.208;2024-03-22T10:22:28;8.00;;;4.53;;
21810;SDS011;11067;48.788;9.208;2024-03-22T10:24:54;5.78;;;4.28;;
21810;SDS011;11067;48.788;9.208;2024-03-22T10:27:20;5.63;;;4.18;;
21810;SDS011;11067;48.788;9.208;2024-03-22T10:29:46;7.30;;;3.80;;
21810;SDS011;11067;48.788;9.208;2024-03-22T10:32:12;4.50;;;3.30;;
21810;SDS011;11067;48.788;9.208;2024-03-22T10:34:37;6.60;;;4.17;;
21810;SDS011;11067;48.788;9.208;2024-03-22T10:37:06;5.22;;;3.70;;
21810;SDS011;11067;48.788;9.208;2024-03-22T10:39:35;4.43;;;3.42;;
21810;SDS011;11067;48.788;9.208;2024-03-22T10:42:02;5.47;;;3.90;;
21810;SDS011;11067;48.788;9.208;2024-03-22T10:44:28;4.85;;;2.97;;
21810;SDS011;11067;48.788;9.208;2024-03-22T10:46:53;6.43;;;3.50;;
21810;SDS011;11067;48.788;9.208;2024-03-22T10:49:24;5.85;;;3.20;;
21810;SDS011;11067;48.788;9.208;2024-03-22T10:51:51;4.20;;;3.50;;
21810;SDS011;11067;48.788;9.208;2024-03-22T10:54:20;5.00;;;3.38;;
21810;SDS011;11067;48.788;9.208;2024-03-22T10:56:49;5.28;;;3.53;;
21810;SDS011;11067;48.788;9.208;2024-03-22T10:59:24;4.87;;;3.67;;
21810;SDS011;11067;48.788;9.208;2024-03-22T11:01:49;4.13;;;3.08;;
21810;SDS011;11067;48.788;9.208;2024-03-22T11:04:16;6.25;;;3.17;;
21810;SDS011;11067;48.788;9.208;2024-03-22T11:06:49;3.58;;;2.90;;
21810;SDS011;11067;48.788;9.208;2024-03-22T11:09:18;4.60;;;3.83;;
21810;SDS011;11067;48.788;9.208;2024-03-22T11:11:46;5.38;;;3.15;;
21810;SDS011;11067;48.788;9.208;2024-03-22T11:14:12;4.07;;;2.93;;
21810;SDS011;11067;48.788;9.208;2024-03-22T11:16:37;5.00;;;3.22;;
21810;SDS011;11067;48.788;9.208;2024-03-22T11:19:04;5.77;;;3.47;;
21810;SDS011;11067;48.788;9.208;2024-03-22T11:21:32;7.30;;;3.55;;
21810;SDS011;11067;48.788;9.208;2024-03-22T11:24:00;4.43;;;3.23;;
21810;SDS011;11067;48.788;9.208;2024-03-22T11:26:26;4.57;;;3.15;;
21810;SDS011;11067;48.788;9.208;2024-03-22T11:28:52;4.40;;;3.20;;
21810;SDS011;11067;48.788;9.208;2024-03-22T11:31:18;6.28;;;3.47;;
21810;SDS011;11067;48.788;9.208;2024-03-22T11:33:46;4.80;;;3.53;;
21810;SDS011;11067;48.788;9.208;2024-03-22T11:36:12;8.37;;;4.03;;
21810;SDS011;11067;48.788;9.208;2024-03-22T11:38:39;6.18;;;3.83;;
21810;SDS011;11067;48.788;9.208;2024-03-22T11:41:04;4.43;;;3.43;;
21810;SDS011;11067;48.788;9.208;2024-03-22T11:43:31;5.20;;;3.60;;
21810;SDS011;11067;48.788;9.208;2024-03-22T11:45:57;7.95;;;4.00;;
21810;SDS011;11067;48.788;9.208;2024-03-22T11:48:23;7.13;;;4.10;;
21810;SDS011;11067;48.788;9.208;2024-03-22T11:50:49;5.53;;;3.77;;
21810;SDS011;11067;48.788;9.208;2024-03-22T11:53:17;6.70;;;3.75;;
21810;SDS011;11067;48.788;9.208;2024-03-22T11:55:43;4.68;;;3.30;;
21810;SDS011;11067;48.788;9.208;2024-03-22T11:58:09;4.95;;;3.55;;
21810;SDS011;11067;48.788;9.208;2024-03-22T12:00:35;4.93;;;3.73;;
21810;SDS011;11067;48.788;9.208;2024-03-22T12:03:03;5.83;;;3.60;;
21810;SDS011;11067;48.788;9.208;2024-03-22T12:05:30;5.27;;;3.50;;
21810;SDS011;11067;48.788;9.208;2024-03-22T12:07:56;4.87;;;3.87;;
21810;SDS011;11067;48.788;9.208;2024-03-22T12:10:21;5.88;;;3.70;;
21810;SDS011;11067;48.788;9.208;2024-03-22T12:12:47;5.43;;;3.80;;
21810;SDS011;11067;48.788;9.208;2024-03-22T12:15:13;5.28;;;3.50;;
21810;SDS011;11067;48.788;9.208;2024-03-22T12:17:38;7.40;;;4.03;;
21810;SDS011;11067;48.788;9.208;2024-03-22T12:20:05;8.13;;;3.63;;
21810;SDS011;11067;48.788;9.208;2024-03-22T12:22:33;4.05;;;3.20;;
21810;SDS011;11067;48.788;9.208;2024-03-22T12:24:59;5.15;;;3.30;;
21810;SDS011;11067;48.788;9.208;2024-03-22T12:27:25;10.88;;;3.42;;
21810;SDS011;11067;48.788;9.208;2024-03-22T12:29:50;5.20;;;3.20;;
21810;SDS011;11067;48.788;9.208;2024-03-22T12:32:16;5.53;;;3.42;;
21810;SDS011;11067;48.788;9.208;2024-03-22T12:34:41;8.30;;;3.43;;
21810;SDS011;11067;48.788;9.208;2024-03-22T12:37:07;9.87;;;3.33;;
21810;SDS011;11067;48.788;9.208;2024-03-22T12:39:33;9.13;;;3.50;;
21810;SDS011;11067;48.788;9.208;2024-03-22T12:41:59;3.97;;;3.00;;
21810;SDS011;11067;48.788;9.208;2024-03-22T12:44:25;5.05;;;3.20;;
21810;SDS011;11067;48.788;9.208;2024-03-22T12:46:51;6.17;;;3.30;;
21810;SDS011;11067;48.788;9.208;2024-03-22T12:49:17;7.03;;;3.30;;
21810;SDS011;11067;48.788;9.208;2024-03-22T12:51:42;4.85;;;3.22;;
21810;SDS011;11067;48.788;9.208;2024-03-22T12:54:08;4.17;;;3.00;;
21810;SDS011;11067;48.788;9.208;2024-03-22T12:56:34;5.57;;;3.60;;
21810;SDS011;11067;48.788;9.208;2024-03-22T12:59:01;4.65;;;3.90;;
21810;SDS011;11067;48.788;9.208;2024-03-22T13:01:27;4.45;;;3.55;;
21810;SDS011;11067;48.788;9.208;2024-03-22T13:03:54;4.93;;;3.28;;
21810;SDS011;11067;48.788;9.208;2024-03-22T13:06:19;5.50;;;3.00;;
21810;SDS011;11067;48.788;9.208;2024-03-22T13:08:45;6.43;;;2.80;;
21810;SDS011;11067;48.788;9.208;2024-03-22T13:11:10;4.47;;;3.10;;
21810;SDS011;11067;48.788;9.208;2024-03-22T13:13:36;5.83;;;3.00;;
21810;SDS011;11067;48.788;9.208;2024-03-22T13:16:02;4.32;;;3.13;;
21810;SDS011;11067;48.788;9.208;2024-03-22T13:18:29;6.00;;;3.20;;
21810;SDS011;11067;48.788;9.208;2024-03-22T13:20:55;4.35;;;3.10;;
21810;SDS011;11067;48.788;9.208;2024-03-22T13:23:20;4.20;;;3.03;;
21810;SDS011;11067;48.788;9.208;2024-03-22T13:25:46;7.15;;;3.00;;
21810;SDS011;11067;48.788;9.208;2024-03-22T13:28:11;4.30;;;3.00;;
21810;SDS011;11067;48.788;9.208;2024-03-22T13:30:37;4.60;;;2.63;;
21810;SDS011;11067;48.788;9.208;2024-03-22T13:33:03;5.80;;;3.13;;
21810;SDS011;11067;48.788;9.208;2024-03-22T13:35:29;4.07;;;2.83;;
21810;SDS011;11067;48.788;9.208;2024-03-22T13:37:54;5.18;;;2.83;;
21810;SDS011;11067;48.788;9.208;2024-03-22T13:40:20;4.33;;;2.77;;
21810;SDS011;11067;48.788;9.208;2024-03-22T13:42:46;4.23;;;2.80;;
21810;SDS011;11067;48.788;9.208;2024-03-22T13:45:11;5.07;;;2.60;;
21810;SDS011;11067;48.788;9.208;2024-03-22T13:47:37;5.00;;;2.70;;
21810;SDS011;11067;48.788;9.208;2024-03-22T13:50:05;4.13;;;2.53;;
21810;SDS011;11067;48.788;9.208;2024-03-22T13:52:33;7.63;;;2.73;;
21810;SDS011;11067;48.788;9.208;2024-03-22T13:55:00;4.17;;;2.73;;
21810;SDS011;11067;48.788;9.208;2024-03-22T13:57:26;3.37;;;2.70;;
21810;SDS011;11067;48.788;9.208;2024-03-22T13:59:52;3.53;;;2.83;;
21810;SDS011;11067;48.788;9.208;2024-03-22T14:02:18;4.55;;;3.00;;
21810;SDS011;11067;48.788;9.208;2024-03-22T14:04:44;4.07;;;2.83;;
21810;SDS011;11067;48.788;9.208;2024-03-22T14:07:10;3.70;;;2.97;;
21810;SDS011;11067;48.788;9.208;2024-03-22T14:09:35;5.17;;;2.93;;
21810;SDS011;11067;48.788;9.208;2024-03-22T14:12:01;8.00;;;3.33;;
21810;SDS011;11067;48.788;9.208;2024-03-22T14:14:27;8.27;;;3.30;;
21810;SDS011;11067;48.788;9.208;2024-03-22T14:16:53;4.30;;;3.00;;
21810;SDS011;11067;48.788;9.208;2024-03-22T14:19:19;4.38;;;2.90;;
21810;SDS011;11067;48.788;9.208;2024-03-22T14:21:45;4.83;;;3.13;;
21810;SDS011;11067;48.788;9.208;2024-03-22T14:24:13;5.05;;;3.05;;